Time;durP1;ratioP1;P1;durP2;ratioP2;P2;SDS_P1;SDS_P2;PMS_P1;PMS_P2;Temp;Humidity;BMP_temperature;BMP_pressure;BME280_temperature;BME280_humidity;BME280_pressure;Samples;Min_cycle;Max_cycle;Signal;HPM_P1;HPM_P2
2023/04/25 00:02:05;;;;;;;8.83;2.07;;;;;;;;;;6217126;23;20434;-69
2023/04/25 00:04:33;;;;;;;3.97;1.70;;;;;;;;;;6216856;23;20485;-69
2023/04/25 00:07:03;;;;;;;1.83;1.40;;;;;;;;;;6217141;23;20384;-65
2023/04/25 00:09:28;;;;;;;1.87;1.77;;;;;;;;;;6217402;23;20429;-71
2023/04/25 00:11:54;;;;;;;4.77;2.30;;;;;;;;;;6216639;23;20858;-72
2023/04/25 00:14:20;;;;;;;1.87;1.80;;;;;;;;;;6216815;23;20383;-71
2023/04/25 00:16:48;;;;;;;1.70;1.60;;;;;;;;;;6216786;23;20833;-70
2023/04/25 00:19:14;;;;;;;8.73;1.83;;;;;;;;;;6216910;23;20383;-70
2023/04/25 00:21:40;;;;;;;1.30;1.30;;;;;;;;;;6190745;23;20454;-67
2023/04/25 00:24:07;;;;;;;3.80;1.40;;;;;;;;;;6216880;23;20375;-70
2023/04/25 00:26:34;;;;;;;1.70;1.60;;;;;;;;;;6216858;23;20868;-68
2023/04/25 00:29:00;;;;;;;1.50;1.40;;;;;;;;;;6216531;23;20845;-70
2023/04/25 00:31:26;;;;;;;2.30;1.40;;;;;;;;;;6214886;23;20398;-71
2023/04/25 00:33:53;;;;;;;2.00;1.60;;;;;;;;;;6216879;23;20383;-71
2023/04/25 00:36:19;;;;;;;2.20;1.60;;;;;;;;;;6216452;23;20849;-71
2023/04/25 00:38:45;;;;;;;1.80;1.70;;;;;;;;;;6190247;23;20379;-67
2023/04/25 00:41:12;;;;;;;0.90;0.90;;;;;;;;;;6214875;23;20383;-67
2023/04/25 00:43:38;;;;;;;2.00;1.23;;;;;;;;;;6216274;23;20431;-68
2023/04/25 00:46:04;;;;;;;3.37;1.70;;;;;;;;;;6216478;23;20371;-67
2023/04/25 00:48:30;;;;;;;1.20;1.20;;;;;;;;;;6216503;23;20485;-68
2023/04/25 00:50:58;;;;;;;4.47;1.40;;;;;;;;;;6216317;23;20371;-68
2023/04/25 00:53:25;;;;;;;1.43;1.43;;;;;;;;;;6216111;23;20450;-70
2023/04/25 00:55:51;;;;;;;1.47;1.37;;;;;;;;;;6216691;23;20385;-68
2023/04/25 00:58:21;;;;;;;2.50;1.10;;;;;;;;;;6216374;23;20727;-66
2023/04/25 01:00:48;;;;;;;2.40;1.70;;;;;;;;;;6216086;23;20872;-66
2023/04/25 01:03:16;;;;;;;1.40;1.40;;;;;;;;;;6216603;23;20388;-71
2023/04/25 01:05:42;;;;;;;2.40;1.53;;;;;;;;;;6216557;23;20433;-68
2023/04/25 01:08:08;;;;;;;2.13;2.03;;;;;;;;;;6216900;23;20375;-70
2023/04/25 01:10:34;;;;;;;3.03;1.70;;;;;;;;;;6215952;23;20425;-71
2023/04/25 01:13:00;;;;;;;2.13;2.03;;;;;;;;;;6216014;23;20480;-68
2023/04/25 01:15:26;;;;;;;2.00;1.90;;;;;;;;;;6216435;23;20371;-72
2023/04/25 01:17:52;;;;;;;2.97;1.40;;;;;;;;;;6216984;23;20387;-71
2023/04/25 01:20:19;;;;;;;2.63;2.07;;;;;;;;;;6217014;23;20433;-73
2023/04/25 01:22:45;;;;;;;7.10;2.27;;;;;;;;;;6216062;23;20433;-68
2023/04/25 01:25:11;;;;;;;2.10;1.70;;;;;;;;;;6214466;23;20402;-66
2023/04/25 01:27:37;;;;;;;3.80;1.60;;;;;;;;;;6216341;23;20379;-68
2023/04/25 01:30:04;;;;;;;2.20;1.90;;;;;;;;;;6216186;23;20398;-66
2023/04/25 01:32:37;;;;;;;2.10;1.97;;;;;;;;;;6216121;23;20435;-69
2023/04/25 01:35:04;;;;;;;10.10;1.83;;;;;;;;;;6216346;23;20367;-69
2023/04/25 01:37:29;;;;;;;3.80;1.90;;;;;;;;;;6215888;23;20371;-67
2023/04/25 01:39:55;;;;;;;5.97;2.07;;;;;;;;;;6216053;23;20672;-67
2023/04/25 01:42:21;;;;;;;3.00;1.83;;;;;;;;;;6215934;23;20371;-70
2023/04/25 01:44:47;;;;;;;2.40;1.70;;;;;;;;;;6215663;23;20483;-66
2023/04/25 01:47:14;;;;;;;1.63;1.53;;;;;;;;;;6215895;23;20446;-73
2023/04/25 01:49:40;;;;;;;3.20;1.50;;;;;;;;;;6215764;23;20371;-70
2023/04/25 01:52:06;;;;;;;2.10;2.10;;;;;;;;;;6215762;23;20505;-69
2023/04/25 01:54:32;;;;;;;3.93;2.17;;;;;;;;;;6215743;23;20372;-66
2023/04/25 01:56:58;;;;;;;2.37;2.20;;;;;;;;;;6216028;23;20379;-73
2023/04/25 01:59:25;;;;;;;2.30;2.10;;;;;;;;;;6215748;23;20820;-73
2023/04/25 02:01:51;;;;;;;2.97;2.00;;;;;;;;;;6216691;23;20725;-69
2023/04/25 02:04:17;;;;;;;3.40;2.23;;;;;;;;;;6215697;23;20899;-68
2023/04/25 02:06:43;;;;;;;7.17;2.20;;;;;;;;;;6215542;23;20856;-67
2023/04/25 02:09:09;;;;;;;1.83;1.83;;;;;;;;;;6215872;23;20776;-66
2023/04/25 02:11:35;;;;;;;1.87;1.87;;;;;;;;;;6215464;23;20375;-67
2023/04/25 02:14:01;;;;;;;2.80;2.30;;;;;;;;;;6215556;23;20462;-67
2023/04/25 02:16:27;;;;;;;4.00;2.30;;;;;;;;;;6215548;23;20705;-67
2023/04/25 02:18:53;;;;;;;2.53;2.43;;;;;;;;;;6215557;23;20382;-68
2023/04/25 02:21:19;;;;;;;2.40;2.20;;;;;;;;;;6215804;23;20379;-68
2023/04/25 02:23:48;;;;;;;2.17;2.10;;;;;;;;;;6215641;23;20386;-67
2023/04/25 02:26:14;;;;;;;2.83;2.10;;;;;;;;;;6215799;23;20854;-72
2023/04/25 02:28:40;;;;;;;2.30;2.10;;;;;;;;;;6215861;23;20485;-71
2023/04/25 02:31:06;;;;;;;1.33;1.33;;;;;;;;;;6216118;23;20861;-73
2023/04/25 02:33:32;;;;;;;2.97;1.60;;;;;;;;;;6215293;23;20434;-70
2023/04/25 02:35:58;;;;;;;2.20;2.10;;;;;;;;;;6215461;23;20375;-70
2023/04/25 02:38:24;;;;;;;9.93;2.30;;;;;;;;;;6215312;23;20466;-68
2023/04/25 02:40:50;;;;;;;2.20;2.00;;;;;;;;;;6215644;23;20474;-72
2023/04/25 02:43:16;;;;;;;1.73;1.73;;;;;;;;;;6215191;23;20917;-73
2023/04/25 02:45:42;;;;;;;2.00;1.87;;;;;;;;;;6215443;23;20387;-68
2023/04/25 02:48:08;;;;;;;7.20;2.87;;;;;;;;;;6215408;23;20375;-72
2023/04/25 02:50:34;;;;;;;2.10;2.00;;;;;;;;;;6215694;23;20403;-69
2023/04/25 02:53:00;;;;;;;2.53;2.43;;;;;;;;;;6215324;23;20975;-68
2023/04/25 02:55:26;;;;;;;6.70;2.50;;;;;;;;;;6215406;23;20368;-70
2023/04/25 02:57:52;;;;;;;2.47;2.27;;;;;;;;;;6215740;23;20706;-72
2023/04/25 03:00:18;;;;;;;2.40;2.30;;;;;;;;;;6215582;23;20829;-71
2023/04/25 03:02:44;;;;;;;2.47;2.27;;;;;;;;;;6215302;23;20864;-72
2023/04/25 03:05:10;;;;;;;2.20;1.97;;;;;;;;;;6215405;23;20374;-73
2023/04/25 03:07:36;;;;;;;2.83;1.90;;;;;;;;;;6215318;23;20379;-72
2023/04/25 03:10:02;;;;;;;2.00;1.90;;;;;;;;;;6213546;23;20436;-71
2023/04/25 03:12:28;;;;;;;2.00;1.90;;;;;;;;;;6216186;23;20426;-68
2023/04/25 03:14:54;;;;;;;2.20;2.10;;;;;;;;;;6215225;23;20371;-71
2023/04/25 03:17:20;;;;;;;5.27;2.07;;;;;;;;;;6217087;23;20379;-72
2023/04/25 03:19:45;;;;;;;10.53;2.40;;;;;;;;;;6217463;23;20374;-71
2023/04/25 03:22:11;;;;;;;2.20;2.10;;;;;;;;;;6217224;23;20386;-68
2023/04/25 03:24:37;;;;;;;2.20;2.00;;;;;;;;;;6217816;23;20382;-68
2023/04/25 03:27:03;;;;;;;3.23;2.40;;;;;;;;;;6217203;23;20382;-71
2023/04/25 03:29:29;;;;;;;2.97;2.20;;;;;;;;;;6217126;23;20383;-69
2023/04/25 03:31:55;;;;;;;2.57;2.37;;;;;;;;;;6217481;23;20496;-71
2023/04/25 03:34:21;;;;;;;2.20;1.83;;;;;;;;;;6217175;23;20378;-67
2023/04/25 03:36:48;;;;;;;2.43;2.27;;;;;;;;;;6217457;23;20379;-68
2023/04/25 03:39:14;;;;;;;3.43;1.77;;;;;;;;;;6217485;23;20868;-67
2023/04/25 03:41:39;;;;;;;4.27;2.77;;;;;;;;;;6216871;23;20383;-69
2023/04/25 03:44:05;;;;;;;1.53;1.53;;;;;;;;;;6216765;23;20431;-69
2023/04/25 03:46:31;;;;;;;3.53;2.90;;;;;;;;;;6217425;23;20441;-70
2023/04/25 03:48:59;;;;;;;2.73;2.63;;;;;;;;;;6217024;23;20501;-69
2023/04/25 03:51:25;;;;;;;2.50;2.30;;;;;;;;;;6216684;23;20856;-68
2023/04/25 03:53:52;;;;;;;3.77;2.77;;;;;;;;;;6217017;23;20470;-70
2023/04/25 03:56:18;;;;;;;2.00;1.90;;;;;;;;;;6217316;23;20398;-70
2023/04/25 03:58:44;;;;;;;2.50;2.30;;;;;;;;;;6217175;23;20398;-68
2023/04/25 04:01:10;;;;;;;3.60;2.03;;;;;;;;;;6215236;23;20433;-66
2023/04/25 04:03:36;;;;;;;3.37;2.17;;;;;;;;;;6216953;23;20379;-68
2023/04/25 04:06:04;;;;;;;2.40;2.30;;;;;;;;;;6216897;23;20749;-66
2023/04/25 04:08:30;;;;;;;2.67;2.67;;;;;;;;;;6217233;23;20387;-72
2023/04/25 04:10:57;;;;;;;2.57;2.50;;;;;;;;;;6217028;23;20383;-69
2023/04/25 04:13:23;;;;;;;2.63;2.53;;;;;;;;;;6217001;23;20488;-69
2023/04/25 04:15:49;;;;;;;3.23;2.17;;;;;;;;;;6216847;23;20791;-65
2023/04/25 04:18:15;;;;;;;5.03;2.63;;;;;;;;;;6217145;23;20458;-70
2023/04/25 04:20:41;;;;;;;2.63;2.53;;;;;;;;;;6217035;23;20374;-67
2023/04/25 04:23:07;;;;;;;4.93;3.00;;;;;;;;;;6216822;23;20385;-66
2023/04/25 04:25:34;;;;;;;4.40;1.90;;;;;;;;;;6216617;23;20693;-69
2023/04/25 04:28:00;;;;;;;3.10;2.43;;;;;;;;;;6214732;23;20854;-70
2023/04/25 04:30:29;;;;;;;2.50;2.40;;;;;;;;;;6216292;23;20371;-69
2023/04/25 04:32:55;;;;;;;2.40;2.30;;;;;;;;;;6216381;23;20478;-67
2023/04/25 04:35:21;;;;;;;6.80;2.70;;;;;;;;;;6216820;23;20421;-69
2023/04/25 04:37:48;;;;;;;5.27;2.50;;;;;;;;;;6216775;23;20406;-66
2023/04/25 04:40:15;;;;;;;2.07;1.90;;;;;;;;;;6216522;23;20383;-72
2023/04/25 04:42:42;;;;;;;2.73;2.40;;;;;;;;;;6216146;23;20386;-68
2023/04/25 04:45:08;;;;;;;2.60;2.17;;;;;;;;;;6216457;23;20798;-71
2023/04/25 04:47:36;;;;;;;3.50;2.93;;;;;;;;;;6216672;23;20386;-74
2023/04/25 04:50:02;;;;;;;3.23;1.97;;;;;;;;;;6216369;23;20359;-67
2023/04/25 04:52:28;;;;;;;4.50;2.27;;;;;;;;;;6216211;23;20430;-65
2023/04/25 04:54:54;;;;;;;3.90;2.90;;;;;;;;;;6216539;23;20687;-69
2023/04/25 04:57:20;;;;;;;8.90;2.70;;;;;;;;;;6217226;23;20437;-68
2023/04/25 04:59:46;;;;;;;3.33;3.23;;;;;;;;;;6216433;23;20447;-67
2023/04/25 05:02:12;;;;;;;3.87;3.70;;;;;;;;;;6216574;23;20389;-66
2023/04/25 05:04:38;;;;;;;3.37;3.23;;;;;;;;;;6216503;23;20695;-67
2023/04/25 05:07:04;;;;;;;9.67;2.47;;;;;;;;;;6216175;23;20687;-66
2023/04/25 05:09:30;;;;;;;4.40;3.70;;;;;;;;;;6216392;23;20386;-68
2023/04/25 05:11:56;;;;;;;5.47;3.20;;;;;;;;;;6215950;23;20414;-66
2023/04/25 05:14:23;;;;;;;2.70;2.47;;;;;;;;;;6216570;23;20707;-67
2023/04/25 05:19:52;;;;;;;2.70;2.40;;;;;;;;;;6216157;23;20797;-69
2023/04/25 05:22:18;;;;;;;4.97;2.63;;;;;;;;;;6215984;23;20367;-69
2023/04/25 05:24:44;;;;;;;4.53;2.43;;;;;;;;;;6216221;23;20401;-66
2023/04/25 05:27:10;;;;;;;5.83;1.97;;;;;;;;;;6215919;23;20367;-68
2023/04/25 05:29:36;;;;;;;8.07;2.50;;;;;;;;;;6215820;23;20374;-66
2023/04/25 05:32:02;;;;;;;5.73;2.20;;;;;;;;;;6216182;23;20422;-66
2023/04/25 05:34:28;;;;;;;5.57;2.40;;;;;;;;;;6216179;23;20387;-66
2023/04/25 05:36:54;;;;;;;6.13;2.40;;;;;;;;;;6215891;23;20384;-66
2023/04/25 05:39:20;;;;;;;5.07;2.63;;;;;;;;;;6215348;23;20391;-68
2023/04/25 05:41:46;;;;;;;3.77;1.90;;;;;;;;;;6216046;23;20374;-68
2023/04/25 05:44:12;;;;;;;3.17;2.37;;;;;;;;;;6216042;23;20430;-66
2023/04/25 05:46:38;;;;;;;3.43;2.43;;;;;;;;;;6216297;23;20672;-68
2023/04/25 05:49:04;;;;;;;2.00;1.90;;;;;;;;;;6214199;23;20395;-67
2023/04/25 05:51:31;;;;;;;1.63;1.53;;;;;;;;;;6216083;23;20458;-68
2023/04/25 05:53:57;;;;;;;3.20;1.63;;;;;;;;;;6216027;23;20399;-69
2023/04/25 05:56:24;;;;;;;1.83;1.30;;;;;;;;;;6216057;23;20770;-70
2023/04/25 05:58:50;;;;;;;1.90;1.30;;;;;;;;;;6216068;23;20390;-70
2023/04/25 06:01:16;;;;;;;1.40;1.40;;;;;;;;;;6215972;23;20403;-68
2023/04/25 06:03:42;;;;;;;2.33;1.47;;;;;;;;;;6215594;23;20387;-67
2023/04/25 06:06:09;;;;;;;4.67;1.33;;;;;;;;;;6215844;23;20465;-72
2023/04/25 06:08:35;;;;;;;3.40;1.10;;;;;;;;;;6215860;23;20379;-73
2023/04/25 06:11:01;;;;;;;2.30;1.53;;;;;;;;;;6215710;23;20462;-72
2023/04/25 06:13:27;;;;;;;0.93;0.93;;;;;;;;;;6216024;23;20958;-70
2023/04/25 06:15:53;;;;;;;3.43;1.30;;;;;;;;;;6215601;23;20450;-70
2023/04/25 06:18:19;;;;;;;3.60;0.80;;;;;;;;;;6215600;23;20402;-70
2023/04/25 06:20:47;;;;;;;0.93;0.80;;;;;;;;;;6215880;23;20432;-70
2023/04/25 06:23:13;;;;;;;1.97;1.17;;;;;;;;;;6214068;23;20701;-74
2023/04/25 06:25:39;;;;;;;0.63;0.63;;;;;;;;;;6215815;23;20376;-69
2023/04/25 06:28:07;;;;;;;0.50;0.50;;;;;;;;;;6189282;23;20715;-66
2023/04/25 06:30:33;;;;;;;1.37;0.80;;;;;;;;;;6215704;23;20371;-73
2023/04/25 06:32:59;;;;;;;0.93;0.73;;;;;;;;;;6216308;23;20488;-72
2023/04/25 06:35:25;;;;;;;0.77;0.60;;;;;;;;;;6215441;23;20371;-67
2023/04/25 06:37:51;;;;;;;1.17;0.60;;;;;;;;;;6215839;23;20956;-70
2023/04/25 06:40:17;;;;;;;1.00;1.00;;;;;;;;;;6215653;23;20378;-70
2023/04/25 06:42:43;;;;;;;0.50;0.50;;;;;;;;;;6215170;23;20438;-72
2023/04/25 06:45:09;;;;;;;0.80;0.80;;;;;;;;;;6215955;23;20360;-73
2023/04/25 06:47:35;;;;;;;4.97;1.00;;;;;;;;;;6215846;23;20379;-72
2023/04/25 06:50:01;;;;;;;0.60;0.50;;;;;;;;;;6215710;23;20457;-67
2023/04/25 06:52:27;;;;;;;3.60;1.40;;;;;;;;;;6215545;23;20447;-74
2023/04/25 06:54:53;;;;;;;0.60;0.60;;;;;;;;;;6217375;23;20375;-68
2023/04/25 06:57:19;;;;;;;3.40;0.60;;;;;;;;;;6218251;23;20379;-67
2023/04/25 06:59:45;;;;;;;1.17;0.60;;;;;;;;;;6217529;23;20877;-68
2023/04/25 07:02:11;;;;;;;1.03;0.80;;;;;;;;;;6217832;23;20379;-70
2023/04/25 07:04:37;;;;;;;1.13;0.70;;;;;;;;;;6217461;23;20379;-70
2023/04/25 07:07:03;;;;;;;0.90;0.70;;;;;;;;;;6217733;23;20429;-68
2023/04/25 07:09:30;;;;;;;1.60;0.50;;;;;;;;;;6218136;23;20386;-66
2023/04/25 07:11:56;;;;;;;0.60;0.60;;;;;;;;;;6217159;23;20429;-68
2023/04/25 07:14:22;;;;;;;0.83;0.83;;;;;;;;;;6217628;23;20383;-66
2023/04/25 07:16:49;;;;;;;1.60;0.87;;;;;;;;;;6215672;23;20388;-70
2023/04/25 07:19:15;;;;;;;1.10;1.10;;;;;;;;;;6217352;23;20469;-69
2023/04/25 07:21:41;;;;;;;6.77;1.30;;;;;;;;;;6217311;23;20417;-67
2023/04/25 07:24:07;;;;;;;0.80;0.80;;;;;;;;;;6217527;23;20383;-67
2023/04/25 07:26:33;;;;;;;1.80;0.87;;;;;;;;;;6217511;23;20379;-68
2023/04/25 07:28:59;;;;;;;1.83;0.67;;;;;;;;;;6217368;23;20466;-69
2023/04/25 07:31:25;;;;;;;0.87;0.60;;;;;;;;;;6216927;23;20375;-70
2023/04/25 07:33:51;;;;;;;0.80;0.80;;;;;;;;;;6217147;23;20493;-69
2023/04/25 07:36:17;;;;;;;0.70;0.70;;;;;;;;;;6217010;23;20454;-68
2023/04/25 07:38:43;;;;;;;0.90;0.90;;;;;;;;;;6217668;23;20383;-73
2023/04/25 07:41:09;;;;;;;1.57;0.80;;;;;;;;;;6217093;23;20382;-74
2023/04/25 07:43:35;;;;;;;2.10;0.70;;;;;;;;;;6196684;23;20451;-71
2023/04/25 07:46:01;;;;;;;5.40;0.70;;;;;;;;;;6157545;23;20384;-68
2023/04/25 07:48:26;;;;;;;0.70;0.70;;;;;;;;;;6157274;23;20444;-68
2023/04/25 07:50:52;;;;;;;1.20;1.20;;;;;;;;;;6157360;23;20835;-71
2023/04/25 07:53:18;;;;;;;2.20;1.90;;;;;;;;;;6157114;23;20436;-70
2023/04/25 07:55:44;;;;;;;1.30;1.30;;;;;;;;;;6157149;23;20376;-68
2023/04/25 07:58:12;;;;;;;2.10;1.03;;;;;;;;;;6157201;23;20376;-71
2023/04/25 08:00:38;;;;;;;1.10;1.10;;;;;;;;;;6156980;23;20770;-69
2023/04/25 08:03:03;;;;;;;1.30;1.27;;;;;;;;;;6157481;23;20391;-68
2023/04/25 08:05:30;;;;;;;1.23;1.23;;;;;;;;;;6157420;23;20385;-71
2023/04/25 08:07:56;;;;;;;2.20;1.13;;;;;;;;;;6157486;23;20465;-66
2023/04/25 08:10:23;;;;;;;0.97;0.97;;;;;;;;;;6157881;23;20445;-71
2023/04/25 08:12:49;;;;;;;1.40;1.40;;;;;;;;;;6157312;23;20464;-71
2023/04/25 08:15:15;;;;;;;7.83;1.60;;;;;;;;;;6157327;23;20389;-67
2023/04/25 08:17:41;;;;;;;1.70;1.70;;;;;;;;;;6155462;23;20404;-67
2023/04/25 08:20:08;;;;;;;1.60;1.30;;;;;;;;;;6157411;23;20750;-70
2023/04/25 08:22:34;;;;;;;1.57;1.57;;;;;;;;;;6156996;23;20369;-71
2023/04/25 08:25:00;;;;;;;1.40;1.40;;;;;;;;;;6157186;23;20385;-70
2023/04/25 08:27:26;;;;;;;3.23;1.13;;;;;;;;;;6157875;23;20392;-69
2023/04/25 08:29:52;;;;;;;2.30;0.90;;;;;;;;;;6156818;23;20373;-70
2023/04/25 08:32:19;;;;;;;1.50;1.50;;;;;;;;;;6157024;23;20475;-71
2023/04/25 08:34:46;;;;;;;1.17;1.07;;;;;;;;;;6157053;23;20404;-68
2023/04/25 08:37:12;;;;;;;1.40;1.40;;;;;;;;;;6155291;23;20863;-72
2023/04/25 08:39:38;;;;;;;1.30;1.30;;;;;;;;;;6156996;23;20435;-69
2023/04/25 08:42:07;;;;;;;1.20;1.20;;;;;;;;;;6156195;23;20373;-69
2023/04/25 08:44:34;;;;;;;1.30;1.17;;;;;;;;;;6207660;23;20988;-68
2023/04/25 08:47:03;;;;;;;1.53;1.53;;;;;;;;;;6216651;23;20414;-72
2023/04/25 08:49:30;;;;;;;1.57;1.30;;;;;;;;;;6216195;23;20763;-67
2023/04/25 08:51:57;;;;;;;2.60;2.50;;;;;;;;;;6216297;23;20446;-67
2023/04/25 08:54:26;;;;;;;2.00;1.90;;;;;;;;;;6216439;23;20380;-68
2023/04/25 08:56:52;;;;;;;1.50;1.50;;;;;;;;;;6216395;23;20399;-68
2023/04/25 08:59:18;;;;;;;1.00;1.00;;;;;;;;;;6216529;23;20380;-68
2023/04/25 09:01:45;;;;;;;1.67;1.57;;;;;;;;;;6216463;23;20368;-67
2023/04/25 09:04:12;;;;;;;1.50;1.50;;;;;;;;;;6216315;23;20853;-68
2023/04/25 09:06:38;;;;;;;0.87;0.87;;;;;;;;;;6216719;23;20370;-67
2023/04/25 09:09:05;;;;;;;1.43;1.33;;;;;;;;;;6216976;23;20379;-68
2023/04/25 09:11:31;;;;;;;2.43;1.17;;;;;;;;;;6217330;23;20380;-68
2023/04/25 09:14:12;;;;;;;1.00;1.00;;;;;;;;;;6216251;23;20487;-69
2023/04/25 09:16:59;;;;;;;1.50;1.40;;;;;;;;;;6216456;23;20379;-68
2023/04/25 09:19:35;;;;;;;1.30;1.30;;;;;;;;;;6215917;23;20462;-68
2023/04/25 09:22:02;;;;;;;1.50;1.40;;;;;;;;;;6216746;23;20372;-68
2023/04/25 09:24:39;;;;;;;1.20;1.20;;;;;;;;;;6216081;23;20735;-70
2023/04/25 09:27:06;;;;;;;1.03;0.93;;;;;;;;;;6216206;23;20383;-72
2023/04/25 09:29:37;;;;;;;1.00;1.00;;;;;;;;;;6216376;23;20379;-69
2023/04/25 09:32:22;;;;;;;1.30;1.30;;;;;;;;;;6216359;23;20422;-68
2023/04/25 09:34:52;;;;;;;2.10;2.00;;;;;;;;;;6216140;23;20387;-72
2023/04/25 09:37:20;;;;;;;1.40;1.40;;;;;;;;;;6216071;23;20367;-69
2023/04/25 09:39:47;;;;;;;2.40;2.30;;;;;;;;;;6215931;23;20470;-68
2023/04/25 09:42:13;;;;;;;3.27;1.20;;;;;;;;;;6216391;23;20367;-67
2023/04/25 09:44:43;;;;;;;2.20;2.13;;;;;;;;;;6215741;23;20457;-69
2023/04/25 09:47:12;;;;;;;7.20;1.53;;;;;;;;;;6216397;23;20814;-68
2023/04/25 09:49:40;;;;;;;3.17;1.50;;;;;;;;;;6216353;23;20375;-67
2023/04/25 09:52:06;;;;;;;1.50;1.50;;;;;;;;;;6216626;23;20439;-71
2023/04/25 09:54:32;;;;;;;1.60;1.50;;;;;;;;;;6216016;23;20377;-68
2023/04/25 09:57:00;;;;;;;2.10;1.33;;;;;;;;;;6215863;23;20411;-69
2023/04/25 09:59:27;;;;;;;1.40;1.40;;;;;;;;;;6216081;23;20449;-66
2023/04/25 10:01:55;;;;;;;1.10;1.10;;;;;;;;;;6215971;23;20704;-69
2023/04/25 10:04:23;;;;;;;6.30;1.37;;;;;;;;;;6215709;23;20409;-67
2023/04/25 10:06:50;;;;;;;2.30;2.03;;;;;;;;;;6216197;23;20377;-71
2023/04/25 10:09:17;;;;;;;1.20;1.10;;;;;;;;;;6216060;23;20371;-67
2023/04/25 10:11:44;;;;;;;1.70;1.70;;;;;;;;;;6216018;23;20371;-69
2023/04/25 10:14:11;;;;;;;1.00;1.00;;;;;;;;;;6215614;23;20767;-67
2023/04/25 10:16:38;;;;;;;2.93;1.43;;;;;;;;;;6215945;23;20367;-68
2023/04/25 10:19:04;;;;;;;3.60;1.33;;;;;;;;;;6215654;23;20406;-67
2023/04/25 10:21:32;;;;;;;1.20;1.20;;;;;;;;;;6190544;23;20746;-68
2023/04/25 10:23:58;;;;;;;1.77;1.07;;;;;;;;;;6215586;23;20833;-67
2023/04/25 10:26:25;;;;;;;4.97;1.20;;;;;;;;;;6213770;23;20883;-68
2023/04/25 10:29:00;;;;;;;1.30;1.30;;;;;;;;;;6215508;23;20891;-67
2023/04/25 10:31:27;;;;;;;0.93;0.93;;;;;;;;;;6215831;23;20383;-68
2023/04/25 10:33:53;;;;;;;1.10;1.10;;;;;;;;;;6215563;23;20434;-69
2023/04/25 10:36:23;;;;;;;2.30;0.80;;;;;;;;;;6213876;23;20445;-68
2023/04/25 10:38:52;;;;;;;1.00;1.00;;;;;;;;;;6216065;23;20421;-67
2023/04/25 10:41:20;;;;;;;6.07;1.50;;;;;;;;;;6215786;23;20462;-67
2023/04/25 10:43:50;;;;;;;1.40;1.30;;;;;;;;;;6215268;23;20418;-72
2023/04/25 10:46:26;;;;;;;2.00;1.00;;;;;;;;;;6215822;23;20386;-67
2023/04/25 10:48:55;;;;;;;1.77;1.40;;;;;;;;;;6215666;23;20376;-67
2023/04/25 10:51:26;;;;;;;0.80;0.80;;;;;;;;;;6215249;23;20394;-70
2023/04/25 10:53:55;;;;;;;1.30;1.30;;;;;;;;;;6215054;23;20438;-66
2023/04/25 10:56:22;;;;;;;1.60;1.50;;;;;;;;;;6213952;23;20410;-70
2023/04/25 10:58:48;;;;;;;1.03;1.03;;;;;;;;;;6215878;23;20972;-68
2023/04/25 11:01:14;;;;;;;1.27;1.20;;;;;;;;;;6215675;23;20379;-67
2023/04/25 11:03:42;;;;;;;1.03;0.90;;;;;;;;;;6216156;23;20429;-68
2023/04/25 11:06:15;;;;;;;0.83;0.83;;;;;;;;;;6215256;23;20437;-70
2023/04/25 11:08:49;;;;;;;1.20;1.07;;;;;;;;;;6214957;23;20375;-70
2023/04/25 11:11:15;;;;;;;1.13;1.13;;;;;;;;;;6215594;23;20367;-72
2023/04/25 11:13:41;;;;;;;0.80;0.80;;;;;;;;;;6215096;23;20422;-73
2023/04/25 11:16:08;;;;;;;1.50;1.00;;;;;;;;;;6215579;23;20868;-72
2023/04/25 11:18:34;;;;;;;1.13;1.13;;;;;;;;;;6215287;23;20758;-71
2023/04/25 11:21:00;;;;;;;1.93;0.93;;;;;;;;;;6215657;23;20833;-69
2023/04/25 11:23:26;;;;;;;1.07;1.07;;;;;;;;;;6215634;23;20419;-72
2023/04/25 11:25:53;;;;;;;0.90;0.90;;;;;;;;;;6216502;23;20375;-73
2023/04/25 11:28:23;;;;;;;4.83;2.90;;;;;;;;;;6215593;23;20387;-70
2023/04/25 11:30:52;;;;;;;2.97;0.90;;;;;;;;;;6216201;23;20383;-69
2023/04/25 11:33:18;;;;;;;0.60;0.60;;;;;;;;;;6215497;23;20462;-72
2023/04/25 11:35:44;;;;;;;0.87;0.67;;;;;;;;;;6215618;23;20378;-70
2023/04/25 11:38:10;;;;;;;3.60;0.83;;;;;;;;;;6214948;23;20498;-70
2023/04/25 11:40:36;;;;;;;0.80;0.80;;;;;;;;;;6217001;23;20391;-72
2023/04/25 11:43:02;;;;;;;0.80;0.80;;;;;;;;;;6217032;23;20426;-69
2023/04/25 11:45:30;;;;;;;1.03;0.50;;;;;;;;;;6217324;23;20896;-71
2023/04/25 11:47:56;;;;;;;0.40;0.40;;;;;;;;;;6216997;23;20463;-69
2023/04/25 11:50:22;;;;;;;2.87;2.77;;;;;;;;;;6217081;23;20472;-68
2023/04/25 11:52:48;;;;;;;0.60;0.60;;;;;;;;;;6217109;23;20424;-68
2023/04/25 11:55:14;;;;;;;0.60;0.60;;;;;;;;;;6217286;23;20394;-68
2023/04/25 11:57:41;;;;;;;2.77;0.50;;;;;;;;;;6217266;23;20367;-68
2023/04/25 12:00:08;;;;;;;1.27;1.27;;;;;;;;;;6216716;23;20802;-71
2023/04/25 12:02:38;;;;;;;0.50;0.50;;;;;;;;;;6216912;23;20375;-62
2023/04/25 12:05:08;;;;;;;0.70;0.60;;;;;;;;;;6216993;23;20379;-69
2023/04/25 12:07:34;;;;;;;0.60;0.60;;;;;;;;;;6217122;23;20406;-71
2023/04/25 12:10:00;;;;;;;0.60;0.60;;;;;;;;;;6216955;23;20374;-71
2023/04/25 12:12:33;;;;;;;0.50;0.50;;;;;;;;;;6216707;23;20434;-72
2023/04/25 12:15:09;;;;;;;1.17;0.60;;;;;;;;;;6215270;23;20402;-69
2023/04/25 12:17:35;;;;;;;0.67;0.67;;;;;;;;;;6217568;23;20796;-69
2023/04/25 12:20:06;;;;;;;0.60;0.60;;;;;;;;;;6216956;23;20892;-67
2023/04/25 12:22:32;;;;;;;0.60;0.60;;;;;;;;;;6217162;23;20371;-72
2023/04/25 12:24:58;;;;;;;0.67;0.67;;;;;;;;;;6216630;23;20712;-72
2023/04/25 12:27:27;;;;;;;1.20;1.10;;;;;;;;;;6216838;23;20372;-74
2023/04/25 12:29:54;;;;;;;0.90;0.67;;;;;;;;;;6216843;23;20473;-71
2023/04/25 12:32:20;;;;;;;2.60;1.80;;;;;;;;;;6216323;23;20781;-72
2023/04/25 12:34:46;;;;;;;1.47;1.47;;;;;;;;;;6216842;23;20445;-71
2023/04/25 12:37:13;;;;;;;1.17;1.17;;;;;;;;;;6216473;23;20842;-70
2023/04/25 12:39:39;;;;;;;0.70;0.70;;;;;;;;;;6216648;23;20853;-74
2023/04/25 12:42:07;;;;;;;0.90;0.73;;;;;;;;;;6216440;23;20704;-70
2023/04/25 12:44:33;;;;;;;1.03;1.03;;;;;;;;;;6216282;23;20438;-70
2023/04/25 12:46:59;;;;;;;2.17;2.07;;;;;;;;;;6216672;23;20383;-68
2023/04/25 12:49:25;;;;;;;0.80;0.80;;;;;;;;;;6216202;23;20450;-68
2023/04/25 12:51:51;;;;;;;2.23;1.50;;;;;;;;;;6216670;23;20414;-68
2023/04/25 12:54:17;;;;;;;0.80;0.80;;;;;;;;;;6216748;23;20409;-68
2023/04/25 12:56:43;;;;;;;1.07;0.90;;;;;;;;;;6216670;23;20379;-72
2023/04/25 12:59:10;;;;;;;1.50;0.87;;;;;;;;;;6216347;23;20842;-68
2023/04/25 13:01:36;;;;;;;3.17;1.40;;;;;;;;;;6216324;23;20887;-68
2023/04/25 13:04:02;;;;;;;0.63;0.63;;;;;;;;;;6216282;23;20375;-68
2023/04/25 13:06:29;;;;;;;1.10;1.10;;;;;;;;;;6216181;23;20449;-68
2023/04/25 13:08:55;;;;;;;12.73;1.47;;;;;;;;;;6217182;23;20387;-69
2023/04/25 13:11:21;;;;;;;4.43;2.77;;;;;;;;;;6216569;23;20383;-71
2023/04/25 13:13:47;;;;;;;0.60;0.60;;;;;;;;;;6216882;23;20501;-72
2023/04/25 13:16:14;;;;;;;0.70;0.70;;;;;;;;;;6216948;23;20375;-73
2023/04/25 13:18:40;;;;;;;0.70;0.70;;;;;;;;;;6216312;23;20580;-68
2023/04/25 13:21:06;;;;;;;0.57;0.57;;;;;;;;;;6216087;23;20379;-68
2023/04/25 13:23:32;;;;;;;1.03;1.03;;;;;;;;;;6216159;23;20372;-67
2023/04/25 13:25:58;;;;;;;0.80;0.80;;;;;;;;;;6216475;23;20371;-67
2023/04/25 13:28:25;;;;;;;1.37;0.70;;;;;;;;;;6217046;23;20379;-68
2023/04/25 13:30:51;;;;;;;0.50;0.50;;;;;;;;;;6216000;23;20378;-69
2023/04/25 13:33:17;;;;;;;1.03;0.47;;;;;;;;;;6216290;23;20427;-69
2023/04/25 13:35:46;;;;;;;0.73;0.50;;;;;;;;;;6216438;23;20403;-72
2023/04/25 13:38:13;;;;;;;0.60;0.60;;;;;;;;;;6214349;23;20426;-66
2023/04/25 13:40:39;;;;;;;1.53;0.57;;;;;;;;;;6216520;23;20429;-67
2023/04/25 13:43:06;;;;;;;0.60;0.60;;;;;;;;;;6216490;23;20426;-71
2023/04/25 13:45:32;;;;;;;0.70;0.70;;;;;;;;;;6216253;23;20386;-70
2023/04/25 13:47:58;;;;;;;0.60;0.60;;;;;;;;;;6215790;23;20715;-67
2023/04/25 13:50:24;;;;;;;0.63;0.63;;;;;;;;;;6215716;23;20395;-67
2023/04/25 13:52:51;;;;;;;0.40;0.40;;;;;;;;;;6215866;23;20538;-68
2023/04/25 13:55:17;;;;;;;0.50;0.50;;;;;;;;;;6216023;23;20429;-67
2023/04/25 13:57:43;;;;;;;0.60;0.60;;;;;;;;;;6215829;23;20834;-67
2023/04/25 14:00:09;;;;;;;0.50;0.50;;;;;;;;;;6215488;23;20442;-70
2023/04/25 14:02:36;;;;;;;0.90;0.90;;;;;;;;;;6215501;23;20368;-72
2023/04/25 14:05:03;;;;;;;1.03;0.37;;;;;;;;;;6216375;23;20375;-70
2023/04/25 14:07:30;;;;;;;0.40;0.40;;;;;;;;;;6215981;23;20438;-70
2023/04/25 14:09:57;;;;;;;0.60;0.60;;;;;;;;;;6215893;23;20375;-72
2023/04/25 14:12:23;;;;;;;0.40;0.40;;;;;;;;;;6215439;23;20921;-68
2023/04/25 14:14:49;;;;;;;1.43;0.77;;;;;;;;;;6215917;23;20386;-70
2023/04/25 14:17:15;;;;;;;0.50;0.50;;;;;;;;;;6215689;23;20387;-66
2023/04/25 14:19:45;;;;;;;0.43;0.43;;;;;;;;;;6215912;23;20409;-66
2023/04/25 14:22:11;;;;;;;0.60;0.60;;;;;;;;;;6215936;23;20383;-68
2023/04/25 14:24:37;;;;;;;2.53;0.70;;;;;;;;;;6215561;23;20837;-67
2023/04/25 14:27:03;;;;;;;1.00;1.00;;;;;;;;;;6215991;23;20864;-67
2023/04/25 14:29:30;;;;;;;0.60;0.60;;;;;;;;;;6215723;23;20780;-66
2023/04/25 14:31:57;;;;;;;0.70;0.70;;;;;;;;;;6216122;23;20422;-66
2023/04/25 14:34:23;;;;;;;0.93;0.60;;;;;;;;;;6215337;23;20884;-69
2023/04/25 14:36:49;;;;;;;0.93;0.93;;;;;;;;;;6215438;23;20450;-69
2023/04/25 14:39:16;;;;;;;1.20;1.20;;;;;;;;;;6216695;23;20407;-66
2023/04/25 14:41:42;;;;;;;1.47;1.47;;;;;;;;;;6214019;23;20719;-68
2023/04/25 14:44:08;;;;;;;1.10;1.10;;;;;;;;;;6215152;23;20430;-67